sensor_id;sensor_type;location;lat;lon;timestamp;P1;durP1;ratioP1;P2;durP2;ratioP2
9904;SDS011;4991;43.566;27.820;2022-11-15T00:01:52;16.90;;;10.33;;
9904;SDS011;4991;43.566;27.820;2022-11-15T00:04:18;15.47;;;10.20;;
9904;SDS011;4991;43.566;27.820;2022-11-15T00:06:44;17.77;;;10.83;;
9904;SDS011;4991;43.566;27.820;2022-11-15T00:09:09;16.53;;;10.63;;
9904;SDS011;4991;43.566;27.820;2022-11-15T00:11:36;15.73;;;10.73;;
9904;SDS011;4991;43.566;27.820;2022-11-15T00:14:02;14.30;;;9.67;;
9904;SDS011;4991;43.566;27.820;2022-11-15T00:16:28;17.00;;;10.33;;
9904;SDS011;4991;43.566;27.820;2022-11-15T00:18:53;15.83;;;9.80;;
9904;SDS011;4991;43.566;27.820;2022-11-15T00:21:19;13.60;;;9.77;;
9904;SDS011;4991;43.566;27.820;2022-11-15T00:23:45;15.03;;;10.23;;
9904;SDS011;4991;43.566;27.820;2022-11-15T00:26:11;16.87;;;9.90;;
9904;SDS011;4991;43.566;27.820;2022-11-15T00:28:39;13.80;;;9.17;;
9904;SDS011;4991;43.566;27.820;2022-11-15T00:31:06;15.80;;;9.77;;
9904;SDS011;4991;43.566;27.820;2022-11-15T00:33:39;13.07;;;8.80;;
9904;SDS011;4991;43.566;27.820;2022-11-15T00:36:08;15.47;;;9.33;;
9904;SDS011;4991;43.566;27.820;2022-11-15T00:38:36;16.90;;;10.83;;
9904;SDS011;4991;43.566;27.820;2022-11-15T00:41:03;17.37;;;10.60;;
9904;SDS011;4991;43.566;27.820;2022-11-15T00:43:31;15.63;;;10.10;;
9904;SDS011;4991;43.566;27.820;2022-11-15T00:45:57;21.37;;;11.70;;
9904;SDS011;4991;43.566;27.820;2022-11-15T00:48:22;18.27;;;11.37;;
9904;SDS011;4991;43.566;27.820;2022-11-15T00:50:48;17.80;;;11.57;;
9904;SDS011;4991;43.566;27.820;2022-11-15T00:53:14;16.17;;;10.87;;
9904;SDS011;4991;43.566;27.820;2022-11-15T00:55:41;15.77;;;11.57;;
9904;SDS011;4991;43.566;27.820;2022-11-15T00:58:07;15.73;;;10.47;;
9904;SDS011;4991;43.566;27.820;2022-11-15T01:00:34;18.63;;;11.57;;
9904;SDS011;4991;43.566;27.820;2022-11-15T01:03:00;19.47;;;11.33;;
9904;SDS011;4991;43.566;27.820;2022-11-15T01:05:27;15.17;;;10.50;;
9904;SDS011;4991;43.566;27.820;2022-11-15T01:07:53;21.20;;;12.90;;
9904;SDS011;4991;43.566;27.820;2022-11-15T01:10:20;16.93;;;10.30;;
9904;SDS011;4991;43.566;27.820;2022-11-15T01:12:46;16.07;;;10.27;;
9904;SDS011;4991;43.566;27.820;2022-11-15T01:15:13;16.53;;;10.70;;
9904;SDS011;4991;43.566;27.820;2022-11-15T01:17:39;15.10;;;10.40;;
9904;SDS011;4991;43.566;27.820;2022-11-15T01:20:05;17.23;;;10.50;;
9904;SDS011;4991;43.566;27.820;2022-11-15T01:22:31;17.83;;;10.60;;
9904;SDS011;4991;43.566;27.820;2022-11-15T01:24:57;18.70;;;11.50;;
9904;SDS011;4991;43.566;27.820;2022-11-15T01:27:22;19.47;;;11.20;;
9904;SDS011;4991;43.566;27.820;2022-11-15T01:29:48;17.40;;;11.03;;
9904;SDS011;4991;43.566;27.820;2022-11-15T01:32:14;17.47;;;11.20;;
9904;SDS011;4991;43.566;27.820;2022-11-15T01:34:39;16.77;;;10.73;;
9904;SDS011;4991;43.566;27.820;2022-11-15T01:37:05;17.37;;;11.13;;
9904;SDS011;4991;43.566;27.820;2022-11-15T01:39:31;18.50;;;11.03;;
9904;SDS011;4991;43.566;27.820;2022-11-15T01:41:56;18.20;;;11.13;;
9904;SDS011;4991;43.566;27.820;2022-11-15T01:47:18;19.77;;;11.40;;
9904;SDS011;4991;43.566;27.820;2022-11-15T01:50:21;18.20;;;10.50;;
9904;SDS011;4991;43.566;27.820;2022-11-15T01:52:40;20.40;;;11.13;;
9904;SDS011;4991;43.566;27.820;2022-11-15T01:55:18;20.10;;;12.13;;
9904;SDS011;4991;43.566;27.820;2022-11-15T01:57:47;20.27;;;11.77;;
9904;SDS011;4991;43.566;27.820;2022-11-15T02:00:16;18.53;;;11.60;;
9904;SDS011;4991;43.566;27.820;2022-11-15T02:02:41;24.97;;;12.60;;
9904;SDS011;4991;43.566;27.820;2022-11-15T02:05:08;23.13;;;11.63;;
9904;SDS011;4991;43.566;27.820;2022-11-15T02:07:34;21.40;;;11.63;;
9904;SDS011;4991;43.566;27.820;2022-11-15T02:10:09;22.43;;;12.20;;
9904;SDS011;4991;43.566;27.820;2022-11-15T02:12:36;22.73;;;12.87;;
9904;SDS011;4991;43.566;27.820;2022-11-15T02:15:03;17.40;;;11.43;;
9904;SDS011;4991;43.566;27.820;2022-11-15T02:23:23;18.17;;;10.33;;
9904;SDS011;4991;43.566;27.820;2022-11-15T02:39:54;22.80;;;12.00;;
9904;SDS011;4991;43.566;27.820;2022-11-15T02:42:33;21.43;;;11.17;;
9904;SDS011;4991;43.566;27.820;2022-11-15T02:45:27;21.90;;;11.83;;
9904;SDS011;4991;43.566;27.820;2022-11-15T02:47:56;18.63;;;12.00;;
9904;SDS011;4991;43.566;27.820;2022-11-15T02:50:25;25.60;;;11.67;;
9904;SDS011;4991;43.566;27.820;2022-11-15T02:52:53;17.40;;;10.43;;
9904;SDS011;4991;43.566;27.820;2022-11-15T02:55:26;22.17;;;11.93;;
9904;SDS011;4991;43.566;27.820;2022-11-15T03:06:36;24.67;;;12.07;;
9904;SDS011;4991;43.566;27.820;2022-11-15T03:12:11;21.97;;;12.33;;
9904;SDS011;4991;43.566;27.820;2022-11-15T03:14:54;24.83;;;11.67;;
9904;SDS011;4991;43.566;27.820;2022-11-15T03:17:28;21.87;;;12.10;;
9904;SDS011;4991;43.566;27.820;2022-11-15T03:19:59;25.40;;;13.30;;
9904;SDS011;4991;43.566;27.820;2022-11-15T03:22:29;21.80;;;12.13;;
9904;SDS011;4991;43.566;27.820;2022-11-15T03:25:00;23.30;;;12.37;;
9904;SDS011;4991;43.566;27.820;2022-11-15T03:27:31;22.33;;;12.60;;
9904;SDS011;4991;43.566;27.820;2022-11-15T03:30:03;24.37;;;12.80;;
9904;SDS011;4991;43.566;27.820;2022-11-15T03:32:32;25.27;;;13.87;;
9904;SDS011;4991;43.566;27.820;2022-11-15T03:35:12;25.60;;;12.07;;
9904;SDS011;4991;43.566;27.820;2022-11-15T03:40:39;25.80;;;13.53;;
9904;SDS011;4991;43.566;27.820;2022-11-15T03:45:46;23.27;;;12.73;;
9904;SDS011;4991;43.566;27.820;2022-11-15T03:48:26;22.53;;;11.87;;
9904;SDS011;4991;43.566;27.820;2022-11-15T03:50:55;22.37;;;11.87;;
9904;SDS011;4991;43.566;27.820;2022-11-15T03:53:21;26.07;;;12.00;;
9904;SDS011;4991;43.566;27.820;2022-11-15T03:55:47;21.73;;;12.53;;
9904;SDS011;4991;43.566;27.820;2022-11-15T03:58:12;26.40;;;13.17;;
9904;SDS011;4991;43.566;27.820;2022-11-15T04:00:38;20.50;;;11.57;;
9904;SDS011;4991;43.566;27.820;2022-11-15T04:03:03;19.57;;;11.33;;
9904;SDS011;4991;43.566;27.820;2022-11-15T04:05:29;23.17;;;12.33;;
9904;SDS011;4991;43.566;27.820;2022-11-15T04:07:55;24.47;;;12.03;;
9904;SDS011;4991;43.566;27.820;2022-11-15T04:10:20;22.27;;;11.47;;
9904;SDS011;4991;43.566;27.820;2022-11-15T04:12:46;20.03;;;11.27;;
9904;SDS011;4991;43.566;27.820;2022-11-15T04:15:14;19.97;;;10.47;;
9904;SDS011;4991;43.566;27.820;2022-11-15T04:17:45;18.07;;;9.97;;
9904;SDS011;4991;43.566;27.820;2022-11-15T04:20:17;18.87;;;10.27;;
9904;SDS011;4991;43.566;27.820;2022-11-15T04:23:02;24.70;;;11.43;;
9904;SDS011;4991;43.566;27.820;2022-11-15T04:25:49;19.00;;;10.00;;
9904;SDS011;4991;43.566;27.820;2022-11-15T04:28:16;15.20;;;9.13;;
9904;SDS011;4991;43.566;27.820;2022-11-15T04:30:42;17.83;;;9.73;;
9904;SDS011;4991;43.566;27.820;2022-11-15T04:33:08;16.20;;;9.30;;
9904;SDS011;4991;43.566;27.820;2022-11-15T04:35:33;17.73;;;9.43;;
9904;SDS011;4991;43.566;27.820;2022-11-15T04:37:59;17.20;;;9.73;;
9904;SDS011;4991;43.566;27.820;2022-11-15T04:40:25;18.10;;;8.77;;
9904;SDS011;4991;43.566;27.820;2022-11-15T04:42:51;17.40;;;9.90;;
9904;SDS011;4991;43.566;27.820;2022-11-15T04:45:16;18.03;;;9.73;;
9904;SDS011;4991;43.566;27.820;2022-11-15T04:47:46;17.67;;;9.47;;
9904;SDS011;4991;43.566;27.820;2022-11-15T04:50:12;17.70;;;9.57;;
9904;SDS011;4991;43.566;27.820;2022-11-15T04:52:42;17.83;;;10.17;;
9904;SDS011;4991;43.566;27.820;2022-11-15T04:55:09;14.47;;;8.43;;
9904;SDS011;4991;43.566;27.820;2022-11-15T04:57:36;18.07;;;9.30;;
9904;SDS011;4991;43.566;27.820;2022-11-15T05:00:03;14.33;;;8.47;;
9904;SDS011;4991;43.566;27.820;2022-11-15T05:02:30;14.30;;;8.37;;
9904;SDS011;4991;43.566;27.820;2022-11-15T05:05:16;18.77;;;10.20;;
9904;SDS011;4991;43.566;27.820;2022-11-15T05:07:42;17.77;;;9.00;;
9904;SDS011;4991;43.566;27.820;2022-11-15T05:10:08;17.50;;;10.07;;
9904;SDS011;4991;43.566;27.820;2022-11-15T05:12:34;23.47;;;11.50;;
9904;SDS011;4991;43.566;27.820;2022-11-15T05:14:59;25.67;;;11.23;;
9904;SDS011;4991;43.566;27.820;2022-11-15T05:17:25;20.87;;;11.00;;
9904;SDS011;4991;43.566;27.820;2022-11-15T05:19:51;19.23;;;11.03;;
9904;SDS011;4991;43.566;27.820;2022-11-15T05:22:17;22.43;;;11.60;;
9904;SDS011;4991;43.566;27.820;2022-11-15T05:24:43;18.47;;;10.70;;
9904;SDS011;4991;43.566;27.820;2022-11-15T05:27:09;25.87;;;12.87;;
9904;SDS011;4991;43.566;27.820;2022-11-15T05:29:34;22.27;;;11.57;;
9904;SDS011;4991;43.566;27.820;2022-11-15T05:32:00;21.77;;;11.77;;
9904;SDS011;4991;43.566;27.820;2022-11-15T05:34:26;21.10;;;11.07;;
9904;SDS011;4991;43.566;27.820;2022-11-15T05:36:51;21.00;;;11.33;;
9904;SDS011;4991;43.566;27.820;2022-11-15T05:39:17;22.07;;;12.53;;
9904;SDS011;4991;43.566;27.820;2022-11-15T05:41:44;22.77;;;11.80;;
9904;SDS011;4991;43.566;27.820;2022-11-15T05:44:14;19.10;;;10.83;;
9904;SDS011;4991;43.566;27.820;2022-11-15T05:46:43;19.87;;;11.40;;
9904;SDS011;4991;43.566;27.820;2022-11-15T05:49:10;20.70;;;9.87;;
9904;SDS011;4991;43.566;27.820;2022-11-15T05:51:39;20.47;;;11.63;;
9904;SDS011;4991;43.566;27.820;2022-11-15T05:54:07;23.77;;;12.17;;
9904;SDS011;4991;43.566;27.820;2022-11-15T05:56:33;21.90;;;11.03;;
9904;SDS011;4991;43.566;27.820;2022-11-15T05:58:58;25.10;;;13.10;;
9904;SDS011;4991;43.566;27.820;2022-11-15T06:01:24;21.87;;;12.47;;
9904;SDS011;4991;43.566;27.820;2022-11-15T06:03:51;23.47;;;13.13;;
9904;SDS011;4991;43.566;27.820;2022-11-15T06:06:17;21.73;;;12.27;;
9904;SDS011;4991;43.566;27.820;2022-11-15T06:08:43;19.43;;;11.93;;
9904;SDS011;4991;43.566;27.820;2022-11-15T06:11:08;23.13;;;12.37;;
9904;SDS011;4991;43.566;27.820;2022-11-15T06:13:34;23.00;;;13.10;;
9904;SDS011;4991;43.566;27.820;2022-11-15T06:16:00;23.00;;;12.83;;
9904;SDS011;4991;43.566;27.820;2022-11-15T06:18:26;24.97;;;13.43;;
9904;SDS011;4991;43.566;27.820;2022-11-15T06:20:52;23.77;;;13.57;;
9904;SDS011;4991;43.566;27.820;2022-11-15T06:23:17;24.43;;;13.53;;
9904;SDS011;4991;43.566;27.820;2022-11-15T06:25:43;19.13;;;11.67;;
9904;SDS011;4991;43.566;27.820;2022-11-15T06:28:09;24.43;;;15.30;;
9904;SDS011;4991;43.566;27.820;2022-11-15T06:30:34;27.23;;;15.77;;
9904;SDS011;4991;43.566;27.820;2022-11-15T06:33:01;41.57;;;23.80;;
9904;SDS011;4991;43.566;27.820;2022-11-15T06:35:28;27.50;;;16.83;;
9904;SDS011;4991;43.566;27.820;2022-11-15T06:37:55;25.17;;;13.53;;
9904;SDS011;4991;43.566;27.820;2022-11-15T06:40:21;24.00;;;13.97;;
9904;SDS011;4991;43.566;27.820;2022-11-15T06:42:48;23.60;;;14.13;;
9904;SDS011;4991;43.566;27.820;2022-11-15T06:45:14;22.10;;;13.70;;
9904;SDS011;4991;43.566;27.820;2022-11-15T06:47:46;20.23;;;12.50;;
9904;SDS011;4991;43.566;27.820;2022-11-15T06:50:12;23.87;;;12.90;;
9904;SDS011;4991;43.566;27.820;2022-11-15T06:52:38;23.40;;;14.00;;
9904;SDS011;4991;43.566;27.820;2022-11-15T06:55:04;24.97;;;13.93;;
9904;SDS011;4991;43.566;27.820;2022-11-15T06:57:30;24.63;;;14.13;;
9904;SDS011;4991;43.566;27.820;2022-11-15T06:59:57;19.80;;;12.47;;
9904;SDS011;4991;43.566;27.820;2022-11-15T07:02:22;21.07;;;12.53;;
9904;SDS011;4991;43.566;27.820;2022-11-15T07:04:48;25.43;;;12.93;;
9904;SDS011;4991;43.566;27.820;2022-11-15T07:07:15;18.97;;;11.40;;
9904;SDS011;4991;43.566;27.820;2022-11-15T07:09:41;19.87;;;11.00;;
9904;SDS011;4991;43.566;27.820;2022-11-15T07:12:06;15.83;;;9.70;;
9904;SDS011;4991;43.566;27.820;2022-11-15T07:14:32;16.83;;;9.73;;
9904;SDS011;4991;43.566;27.820;2022-11-15T07:16:58;14.83;;;9.60;;
9904;SDS011;4991;43.566;27.820;2022-11-15T07:19:23;14.97;;;9.07;;
9904;SDS011;4991;43.566;27.820;2022-11-15T07:21:49;13.80;;;8.50;;
9904;SDS011;4991;43.566;27.820;2022-11-15T07:24:14;16.23;;;9.63;;
9904;SDS011;4991;43.566;27.820;2022-11-15T07:26:40;17.63;;;8.70;;
9904;SDS011;4991;43.566;27.820;2022-11-15T07:29:06;13.97;;;8.17;;
9904;SDS011;4991;43.566;27.820;2022-11-15T07:31:31;18.57;;;10.03;;
9904;SDS011;4991;43.566;27.820;2022-11-15T07:33:57;15.10;;;9.40;;
9904;SDS011;4991;43.566;27.820;2022-11-15T07:36:23;13.67;;;8.33;;
9904;SDS011;4991;43.566;27.820;2022-11-15T07:38:48;15.10;;;9.57;;
9904;SDS011;4991;43.566;27.820;2022-11-15T07:41:14;14.93;;;9.83;;
9904;SDS011;4991;43.566;27.820;2022-11-15T07:43:39;16.80;;;10.07;;
9904;SDS011;4991;43.566;27.820;2022-11-15T07:46:06;18.30;;;10.60;;
9904;SDS011;4991;43.566;27.820;2022-11-15T07:48:34;20.57;;;11.63;;
9904;SDS011;4991;43.566;27.820;2022-11-15T07:51:01;18.00;;;11.23;;
9904;SDS011;4991;43.566;27.820;2022-11-15T07:53:27;17.07;;;10.83;;
9904;SDS011;4991;43.566;27.820;2022-11-15T07:55:52;17.37;;;10.10;;
9904;SDS011;4991;43.566;27.820;2022-11-15T07:58:19;17.80;;;11.30;;
9904;SDS011;4991;43.566;27.820;2022-11-15T08:00:45;18.17;;;10.67;;
9904;SDS011;4991;43.566;27.820;2022-11-15T08:03:14;18.70;;;10.93;;
9904;SDS011;4991;43.566;27.820;2022-11-15T08:05:41;17.40;;;10.53;;
9904;SDS011;4991;43.566;27.820;2022-11-15T08:08:09;19.07;;;12.43;;
9904;SDS011;4991;43.566;27.820;2022-11-15T08:10:36;17.97;;;10.97;;
9904;SDS011;4991;43.566;27.820;2022-11-15T08:13:06;17.27;;;10.13;;
9904;SDS011;4991;43.566;27.820;2022-11-15T08:15:34;16.07;;;10.47;;
9904;SDS011;4991;43.566;27.820;2022-11-15T08:18:02;19.33;;;11.70;;
9904;SDS011;4991;43.566;27.820;2022-11-15T08:20:30;17.37;;;11.53;;
9904;SDS011;4991;43.566;27.820;2022-11-15T08:22:57;15.83;;;9.97;;
9904;SDS011;4991;43.566;27.820;2022-11-15T08:25:25;14.80;;;10.47;;
9904;SDS011;4991;43.566;27.820;2022-11-15T08:27:53;16.57;;;10.80;;
9904;SDS011;4991;43.566;27.820;2022-11-15T08:30:19;18.33;;;10.10;;
9904;SDS011;4991;43.566;27.820;2022-11-15T08:32:46;14.17;;;9.77;;
9904;SDS011;4991;43.566;27.820;2022-11-15T08:35:12;13.67;;;9.23;;
9904;SDS011;4991;43.566;27.820;2022-11-15T08:37:37;17.07;;;10.07;;
9904;SDS011;4991;43.566;27.820;2022-11-15T08:40:04;15.40;;;9.20;;
9904;SDS011;4991;43.566;27.820;2022-11-15T08:42:30;14.57;;;9.73;;
9904;SDS011;4991;43.566;27.820;2022-11-15T08:44:56;14.33;;;9.27;;
9904;SDS011;4991;43.566;27.820;2022-11-15T08:47:21;13.60;;;8.77;;
9904;SDS011;4991;43.566;27.820;2022-11-15T08:49:47;12.77;;;8.03;;
9904;SDS011;4991;43.566;27.820;2022-11-15T08:52:13;12.33;;;8.33;;
9904;SDS011;4991;43.566;27.820;2022-11-15T08:54:39;11.50;;;8.30;;
9904;SDS011;4991;43.566;27.820;2022-11-15T08:57:05;12.23;;;7.90;;
9904;SDS011;4991;43.566;27.820;2022-11-15T08:59:31;11.27;;;7.80;;
9904;SDS011;4991;43.566;27.820;2022-11-15T09:01:57;15.47;;;9.80;;
9904;SDS011;4991;43.566;27.820;2022-11-15T09:04:22;11.60;;;7.30;;
9904;SDS011;4991;43.566;27.820;2022-11-15T09:06:48;11.20;;;6.90;;
9904;SDS011;4991;43.566;27.820;2022-11-15T09:09:14;10.93;;;7.27;;
9904;SDS011;4991;43.566;27.820;2022-11-15T09:11:40;9.93;;;6.70;;
9904;SDS011;4991;43.566;27.820;2022-11-15T09:14:05;11.77;;;7.40;;
9904;SDS011;4991;43.566;27.820;2022-11-15T09:16:31;12.00;;;7.40;;
9904;SDS011;4991;43.566;27.820;2022-11-15T09:18:57;11.77;;;6.97;;
9904;SDS011;4991;43.566;27.820;2022-11-15T09:21:22;11.00;;;7.40;;
9904;SDS011;4991;43.566;27.820;2022-11-15T09:23:51;14.77;;;7.90;;
9904;SDS011;4991;43.566;27.820;2022-11-15T09:26:17;11.10;;;6.83;;
9904;SDS011;4991;43.566;27.820;2022-11-15T09:28:43;14.90;;;8.13;;
9904;SDS011;4991;43.566;27.820;2022-11-15T09:31:09;9.83;;;6.80;;
9904;SDS011;4991;43.566;27.820;2022-11-15T09:33:35;11.43;;;7.27;;
9904;SDS011;4991;43.566;27.820;2022-11-15T09:36:05;11.40;;;8.07;;
9904;SDS011;4991;43.566;27.820;2022-11-15T09:38:33;11.80;;;8.13;;
9904;SDS011;4991;43.566;27.820;2022-11-15T09:44:06;12.47;;;8.57;;
9904;SDS011;4991;43.566;27.820;2022-11-15T09:47:05;14.23;;;8.70;;
9904;SDS011;4991;43.566;27.820;2022-11-15T09:49:59;14.40;;;9.20;;
9904;SDS011;4991;43.566;27.820;2022-11-15T09:52:27;12.10;;;8.83;;
9904;SDS011;4991;43.566;27.820;2022-11-15T09:54:53;14.03;;;9.50;;
9904;SDS011;4991;43.566;27.820;2022-11-15T10:02:55;15.70;;;9.90;;
9904;SDS011;4991;43.566;27.820;2022-11-15T10:05:43;15.27;;;10.07;;
9904;SDS011;4991;43.566;27.820;2022-11-15T10:08:20;15.53;;;9.67;;
9904;SDS011;4991;43.566;27.820;2022-11-15T10:11:11;15.67;;;10.30;;
9904;SDS011;4991;43.566;27.820;2022-11-15T10:13:46;11.77;;;8.27;;
9904;SDS011;4991;43.566;27.820;2022-11-15T10:22:05;13.70;;;7.63;;
9904;SDS011;4991;43.566;27.820;2022-11-15T10:24:46;9.77;;;7.10;;
9904;SDS011;4991;43.566;27.820;2022-11-15T10:27:16;14.30;;;7.73;;
9904;SDS011;4991;43.566;27.820;2022-11-15T10:29:50;14.43;;;8.43;;
9904;SDS011;4991;43.566;27.820;2022-11-15T10:32:19;9.03;;;7.10;;
9904;SDS011;4991;43.566;27.820;2022-11-15T10:34:46;11.40;;;7.30;;
9904;SDS011;4991;43.566;27.820;2022-11-15T10:37:14;9.53;;;7.17;;
9904;SDS011;4991;43.566;27.820;2022-11-15T10:39:40;10.10;;;7.80;;
9904;SDS011;4991;43.566;27.820;2022-11-15T10:45:00;11.20;;;7.50;;
9904;SDS011;4991;43.566;27.820;2022-11-15T10:47:30;9.73;;;6.60;;
9904;SDS011;4991;43.566;27.820;2022-11-15T10:49:58;9.17;;;6.60;;
9904;SDS011;4991;43.566;27.820;2022-11-15T10:52:45;10.23;;;7.30;;
9904;SDS011;4991;43.566;27.820;2022-11-15T10:57:38;9.97;;;7.37;;
9904;SDS011;4991;43.566;27.820;2022-11-15T11:00:47;10.30;;;7.50;;
9904;SDS011;4991;43.566;27.820;2022-11-15T11:02:58;10.50;;;6.40;;
9904;SDS011;4991;43.566;27.820;2022-11-15T11:05:29;10.67;;;7.60;;
9904;SDS011;4991;43.566;27.820;2022-11-15T11:07:58;9.93;;;7.20;;
9904;SDS011;4991;43.566;27.820;2022-11-15T11:10:35;9.27;;;7.20;;
9904;SDS011;4991;43.566;27.820;2022-11-15T11:13:13;9.50;;;6.30;;
9904;SDS011;4991;43.566;27.820;2022-11-15T11:15:40;8.33;;;6.07;;
9904;SDS011;4991;43.566;27.820;2022-11-15T11:18:20;11.23;;;6.13;;
9904;SDS011;4991;43.566;27.820;2022-11-15T11:21:18;7.27;;;5.73;;
9904;SDS011;4991;43.566;27.820;2022-11-15T11:23:53;7.50;;;6.20;;
9904;SDS011;4991;43.566;27.820;2022-11-15T11:26:29;6.60;;;5.57;;
9904;SDS011;4991;43.566;27.820;2022-11-15T11:32:22;9.57;;;6.70;;
9904;SDS011;4991;43.566;27.820;2022-11-15T11:35:20;8.27;;;5.47;;
9904;SDS011;4991;43.566;27.820;2022-11-15T11:42:58;7.63;;;5.07;;
9904;SDS011;4991;43.566;27.820;2022-11-15T11:50:46;11.07;;;6.97;;
9904;SDS011;4991;43.566;27.820;2022-11-15T11:55:55;12.23;;;7.00;;
9904;SDS011;4991;43.566;27.820;2022-11-15T12:01:17;12.80;;;6.67;;
9904;SDS011;4991;43.566;27.820;2022-11-15T12:03:55;8.53;;;5.50;;
9904;SDS011;4991;43.566;27.820;2022-11-15T12:06:32;8.43;;;5.57;;
9904;SDS011;4991;43.566;27.820;2022-11-15T12:14:45;11.87;;;5.73;;
9904;SDS011;4991;43.566;27.820;2022-11-15T12:17:13;6.30;;;4.73;;
9904;SDS011;4991;43.566;27.820;2022-11-15T12:19:42;5.37;;;4.50;;
9904;SDS011;4991;43.566;27.820;2022-11-15T12:30:14;9.67;;;5.73;;
9904;SDS011;4991;43.566;27.820;2022-11-15T12:32:51;9.47;;;5.93;;
9904;SDS011;4991;43.566;27.820;2022-11-15T12:35:27;8.13;;;5.40;;
9904;SDS011;4991;43.566;27.820;2022-11-15T12:38:00;7.83;;;4.83;;
9904;SDS011;4991;43.566;27.820;2022-11-15T12:40:31;6.53;;;4.97;;
9904;SDS011;4991;43.566;27.820;2022-11-15T12:45:41;10.23;;;5.40;;
9904;SDS011;4991;43.566;27.820;2022-11-15T12:58:59;6.60;;;5.03;;
9904;SDS011;4991;43.566;27.820;2022-11-15T13:12:06;7.17;;;5.43;;
9904;SDS011;4991;43.566;27.820;2022-11-15T13:19:58;10.73;;;5.97;;
9904;SDS011;4991;43.566;27.820;2022-11-15T13:22:46;9.70;;;5.73;;
9904;SDS011;4991;43.566;27.820;2022-11-15T13:30:49;18.20;;;6.80;;
9904;SDS011;4991;43.566;27.820;2022-11-15T13:33:38;9.30;;;6.90;;
9904;SDS011;4991;43.566;27.820;2022-11-15T13:38:42;15.13;;;5.53;;
9904;SDS011;4991;43.566;27.820;2022-11-15T13:41:14;7.87;;;4.93;;
9904;SDS011;4991;43.566;27.820;2022-11-15T13:43:46;7.70;;;4.90;;
9904;SDS011;4991;43.566;27.820;2022-11-15T13:46:21;9.43;;;5.23;;
9904;SDS011;4991;43.566;27.820;2022-11-15T13:48:59;6.20;;;4.43;;
9904;SDS011;4991;43.566;27.820;2022-11-15T13:56:45;9.03;;;5.30;;
9904;SDS011;4991;43.566;27.820;2022-11-15T13:59:24;13.57;;;5.90;;
9904;SDS011;4991;43.566;27.820;2022-11-15T14:01:53;6.53;;;5.27;;
9904;SDS011;4991;43.566;27.820;2022-11-15T14:04:21;8.70;;;5.10;;
9904;SDS011;4991;43.566;27.820;2022-11-15T14:06:55;10.03;;;4.80;;
9904;SDS011;4991;43.566;27.820;2022-11-15T14:12:50;7.43;;;5.87;;
9904;SDS011;4991;43.566;27.820;2022-11-15T14:14:59;10.53;;;6.63;;
9904;SDS011;4991;43.566;27.820;2022-11-15T14:19:54;11.77;;;7.90;;
9904;SDS011;4991;43.566;27.820;2022-11-15T14:22:21;12.97;;;6.67;;
9904;SDS011;4991;43.566;27.820;2022-11-15T14:27:41;18.20;;;8.53;;
9904;SDS011;4991;43.566;27.820;2022-11-15T14:30:14;16.23;;;9.00;;
9904;SDS011;4991;43.566;27.820;2022-11-15T14:35:15;16.20;;;9.60;;
9904;SDS011;4991;43.566;27.820;2022-11-15T14:37:43;14.23;;;9.00;;
9904;SDS011;4991;43.566;27.820;2022-11-15T14:40:12;16.80;;;9.77;;
9904;SDS011;4991;43.566;27.820;2022-11-15T14:42:41;23.20;;;10.20;;
9904;SDS011;4991;43.566;27.820;2022-11-15T14:45:13;16.53;;;9.80;;
9904;SDS011;4991;43.566;27.820;2022-11-15T14:47:44;16.70;;;11.23;;
9904;SDS011;4991;43.566;27.820;2022-11-15T14:50:15;13.97;;;11.23;;
9904;SDS011;4991;43.566;27.820;2022-11-15T14:52:44;16.27;;;11.30;;
9904;SDS011;4991;43.566;27.820;2022-11-15T14:55:32;16.73;;;10.20;;
9904;SDS011;4991;43.566;27.820;2022-11-15T14:58:04;15.13;;;9.70;;
9904;SDS011;4991;43.566;27.820;2022-11-15T15:00:33;22.30;;;11.67;;
9904;SDS011;4991;43.566;27.820;2022-11-15T15:03:00;20.33;;;12.63;;
9904;SDS011;4991;43.566;27.820;2022-11-15T15:08:05;18.87;;;11.27;;
9904;SDS011;4991;43.566;27.820;2022-11-15T15:10:32;21.43;;;14.70;;
9904;SDS011;4991;43.566;27.820;2022-11-15T15:13:15;18.53;;;13.27;;
9904;SDS011;4991;43.566;27.820;2022-11-15T15:15:44;20.47;;;13.87;;
9904;SDS011;4991;43.566;27.820;2022-11-15T15:18:09;18.00;;;12.30;;
9904;SDS011;4991;43.566;27.820;2022-11-15T15:20:37;35.93;;;15.97;;
9904;SDS011;4991;43.566;27.820;2022-11-15T15:23:05;23.30;;;14.87;;
9904;SDS011;4991;43.566;27.820;2022-11-15T15:25:54;31.63;;;19.40;;
9904;SDS011;4991;43.566;27.820;2022-11-15T15:28:19;26.50;;;17.10;;
9904;SDS011;4991;43.566;27.820;2022-11-15T15:30:45;27.63;;;15.60;;
9904;SDS011;4991;43.566;27.820;2022-11-15T15:33:11;25.07;;;15.80;;
9904;SDS011;4991;43.566;27.820;2022-11-15T15:35:37;33.07;;;23.53;;
9904;SDS011;4991;43.566;27.820;2022-11-15T15:38:02;35.30;;;22.67;;
9904;SDS011;4991;43.566;27.820;2022-11-15T15:40:31;35.23;;;22.73;;
9904;SDS011;4991;43.566;27.820;2022-11-15T15:42:58;35.87;;;21.13;;
9904;SDS011;4991;43.566;27.820;2022-11-15T15:45:24;31.67;;;19.03;;
9904;SDS011;4991;43.566;27.820;2022-11-15T15:47:52;33.97;;;20.23;;
9904;SDS011;4991;43.566;27.820;2022-11-15T15:50:24;29.23;;;21.17;;
9904;SDS011;4991;43.566;27.820;2022-11-15T15:52:53;28.37;;;20.10;;
9904;SDS011;4991;43.566;27.820;2022-11-15T15:55:21;27.07;;;18.53;;
9904;SDS011;4991;43.566;27.820;2022-11-15T15:57:48;22.73;;;16.80;;
9904;SDS011;4991;43.566;27.820;2022-11-15T16:00:16;27.50;;;16.47;;
9904;SDS011;4991;43.566;27.820;2022-11-15T16:02:44;24.70;;;15.80;;
9904;SDS011;4991;43.566;27.820;2022-11-15T16:05:11;22.73;;;15.43;;
9904;SDS011;4991;43.566;27.820;2022-11-15T16:07:38;24.93;;;14.53;;
9904;SDS011;4991;43.566;27.820;2022-11-15T16:12:50;26.83;;;13.90;;
9904;SDS011;4991;43.566;27.820;2022-11-15T16:15:18;30.43;;;15.13;;
9904;SDS011;4991;43.566;27.820;2022-11-15T16:18:18;27.37;;;19.33;;
9904;SDS011;4991;43.566;27.820;2022-11-15T16:20:43;32.63;;;17.87;;
9904;SDS011;4991;43.566;27.820;2022-11-15T16:23:12;23.90;;;16.80;;
9904;SDS011;4991;43.566;27.820;2022-11-15T16:28:31;25.63;;;17.10;;
9904;SDS011;4991;43.566;27.820;2022-11-15T16:31:02;29.90;;;18.80;;
9904;SDS011;4991;43.566;27.820;2022-11-15T16:33:31;26.67;;;20.70;;
9904;SDS011;4991;43.566;27.820;2022-11-15T16:35:59;23.57;;;16.17;;
9904;SDS011;4991;43.566;27.820;2022-11-15T16:38:25;19.43;;;16.37;;
9904;SDS011;4991;43.566;27.820;2022-11-15T16:40:52;23.73;;;15.33;;
9904;SDS011;4991;43.566;27.820;2022-11-15T16:43:18;17.30;;;13.50;;
9904;SDS011;4991;43.566;27.820;2022-11-15T16:45:45;19.63;;;13.40;;
9904;SDS011;4991;43.566;27.820;2022-11-15T16:48:29;14.87;;;11.57;;
9904;SDS011;4991;43.566;27.820;2022-11-15T16:50:55;9.67;;;8.63;;
9904;SDS011;4991;43.566;27.820;2022-11-15T16:53:24;12.60;;;9.20;;
9904;SDS011;4991;43.566;27.820;2022-11-15T16:55:50;13.70;;;9.47;;
9904;SDS011;4991;43.566;27.820;2022-11-15T16:58:18;13.70;;;10.17;;
9904;SDS011;4991;43.566;27.820;2022-11-15T17:00:44;10.10;;;8.00;;
9904;SDS011;4991;43.566;27.820;2022-11-15T17:03:16;15.83;;;9.00;;
9904;SDS011;4991;43.566;27.820;2022-11-15T17:05:41;11.03;;;8.67;;
9904;SDS011;4991;43.566;27.820;2022-11-15T17:08:09;16.57;;;10.23;;
9904;SDS011;4991;43.566;27.820;2022-11-15T17:10:37;13.47;;;9.87;;
9904;SDS011;4991;43.566;27.820;2022-11-15T17:13:04;11.53;;;9.17;;
9904;SDS011;4991;43.566;27.820;2022-11-15T17:15:33;16.63;;;11.00;;
9904;SDS011;4991;43.566;27.820;2022-11-15T17:18:00;20.40;;;11.87;;
9904;SDS011;4991;43.566;27.820;2022-11-15T17:20:26;24.63;;;13.63;;
9904;SDS011;4991;43.566;27.820;2022-11-15T17:22:52;13.03;;;10.27;;
9904;SDS011;4991;43.566;27.820;2022-11-15T17:25:18;16.33;;;10.80;;
9904;SDS011;4991;43.566;27.820;2022-11-15T17:27:44;26.23;;;16.20;;